sensor_id;sensor_type;location;lat;lon;timestamp;temperature;humidity
38183;DHT22;23991;52.430;10.586;2022-11-20T00:01:24;0.10;76.60
38183;DHT22;23991;52.430;10.586;2022-11-20T00:03:52;0.10;76.60
38183;DHT22;23991;52.430;10.586;2022-11-20T00:06:19;0.10;76.70
38183;DHT22;23991;52.430;10.586;2022-11-20T00:08:46;0.10;76.70
38183;DHT22;23991;52.430;10.586;2022-11-20T00:11:18;0.10;76.70
38183;DHT22;23991;52.430;10.586;2022-11-20T00:13:45;0.10;76.60
38183;DHT22;23991;52.430;10.586;2022-11-20T00:16:13;0.10;76.70
38183;DHT22;23991;52.430;10.586;2022-11-20T00:18:39;0.10;76.80
38183;DHT22;23991;52.430;10.586;2022-11-20T00:21:16;0.10;76.80
38183;DHT22;23991;52.430;10.586;2022-11-20T00:23:42;0.10;76.80
38183;DHT22;23991;52.430;10.586;2022-11-20T00:26:09;0.20;76.90
38183;DHT22;23991;52.430;10.586;2022-11-20T00:28:35;0.10;76.90
38183;DHT22;23991;52.430;10.586;2022-11-20T00:31:07;0.10;77.00
38183;DHT22;23991;52.430;10.586;2022-11-20T00:33:33;0.10;77.00
38183;DHT22;23991;52.430;10.586;2022-11-20T00:36:00;0.10;77.20
38183;DHT22;23991;52.430;10.586;2022-11-20T00:38:30;0.10;77.20
38183;DHT22;23991;52.430;10.586;2022-11-20T00:40:57;0.10;77.30
38183;DHT22;23991;52.430;10.586;2022-11-20T00:43:24;0.10;77.30
38183;DHT22;23991;52.430;10.586;2022-11-20T00:45:50;0.10;77.40
38183;DHT22;23991;52.430;10.586;2022-11-20T00:48:16;0.10;77.40
38183;DHT22;23991;52.430;10.586;2022-11-20T00:50:41;0.10;77.40
38183;DHT22;23991;52.430;10.586;2022-11-20T00:53:07;0.20;77.40
38183;DHT22;23991;52.430;10.586;2022-11-20T00:55:33;0.10;77.40
38183;DHT22;23991;52.430;10.586;2022-11-20T00:57:58;0.10;77.40
38183;DHT22;23991;52.430;10.586;2022-11-20T01:00:24;0.10;77.40
38183;DHT22;23991;52.430;10.586;2022-11-20T01:02:50;0.20;77.40
38183;DHT22;23991;52.430;10.586;2022-11-20T01:05:15;0.10;77.30
38183;DHT22;23991;52.430;10.586;2022-11-20T01:07:41;0.10;77.30
38183;DHT22;23991;52.430;10.586;2022-11-20T01:10:07;0.10;77.30
38183;DHT22;23991;52.430;10.586;2022-11-20T01:12:32;0.10;77.30
38183;DHT22;23991;52.430;10.586;2022-11-20T01:14:58;0.10;77.20
38183;DHT22;23991;52.430;10.586;2022-11-20T01:17:23;0.10;77.20
38183;DHT22;23991;52.430;10.586;2022-11-20T01:19:49;0.10;77.20
38183;DHT22;23991;52.430;10.586;2022-11-20T01:22:16;0.10;77.20
38183;DHT22;23991;52.430;10.586;2022-11-20T01:24:41;0.10;77.10
38183;DHT22;23991;52.430;10.586;2022-11-20T01:27:07;0.10;77.10
38183;DHT22;23991;52.430;10.586;2022-11-20T01:29:33;0.10;77.10
38183;DHT22;23991;52.430;10.586;2022-11-20T01:31:58;0.10;77.00
38183;DHT22;23991;52.430;10.586;2022-11-20T01:34:24;0.10;76.90
38183;DHT22;23991;52.430;10.586;2022-11-20T01:36:51;0.10;76.90
38183;DHT22;23991;52.430;10.586;2022-11-20T01:39:23;0.10;76.80
38183;DHT22;23991;52.430;10.586;2022-11-20T01:41:50;0.10;76.80
38183;DHT22;23991;52.430;10.586;2022-11-20T01:45:01;0.10;76.80
38183;DHT22;23991;52.430;10.586;2022-11-20T01:47:44;0.10;76.80
38183;DHT22;23991;52.430;10.586;2022-11-20T01:50:18;0.10;76.80
38183;DHT22;23991;52.430;10.586;2022-11-20T01:52:58;0.10;76.80
38183;DHT22;23991;52.430;10.586;2022-11-20T01:55:32;0.10;76.80
38183;DHT22;23991;52.430;10.586;2022-11-20T01:57:58;0.10;76.90
38183;DHT22;23991;52.430;10.586;2022-11-20T02:00:25;0.10;76.90
38183;DHT22;23991;52.430;10.586;2022-11-20T02:02:54;0.10;76.90
38183;DHT22;23991;52.430;10.586;2022-11-20T02:05:35;0.10;76.80
38183;DHT22;23991;52.430;10.586;2022-11-20T02:08:04;0.10;76.80
38183;DHT22;23991;52.430;10.586;2022-11-20T02:10:33;0.10;76.80
38183;DHT22;23991;52.430;10.586;2022-11-20T02:12:59;0.10;77.00
38183;DHT22;23991;52.430;10.586;2022-11-20T02:15:44;0.10;76.90
38183;DHT22;23991;52.430;10.586;2022-11-20T02:18:11;0.10;76.90
38183;DHT22;23991;52.430;10.586;2022-11-20T02:20:40;0.10;76.90
38183;DHT22;23991;52.430;10.586;2022-11-20T02:25:35;0.10;77.10
38183;DHT22;23991;52.430;10.586;2022-11-20T02:28:02;0.00;77.10
38183;DHT22;23991;52.430;10.586;2022-11-20T02:30:28;0.00;77.00
38183;DHT22;23991;52.430;10.586;2022-11-20T02:32:54;0.10;77.00
38183;DHT22;23991;52.430;10.586;2022-11-20T02:37:48;0.00;76.90
38183;DHT22;23991;52.430;10.586;2022-11-20T02:40:14;0.00;76.80
38183;DHT22;23991;52.430;10.586;2022-11-20T02:42:40;0.00;76.80
38183;DHT22;23991;52.430;10.586;2022-11-20T02:45:07;0.00;76.90
38183;DHT22;23991;52.430;10.586;2022-11-20T02:47:33;0.00;77.00
38183;DHT22;23991;52.430;10.586;2022-11-20T02:49:59;0.00;76.90
38183;DHT22;23991;52.430;10.586;2022-11-20T02:52:25;0.00;77.00
38183;DHT22;23991;52.430;10.586;2022-11-20T02:54:51;0.00;76.90
38183;DHT22;23991;52.430;10.586;2022-11-20T02:57:17;0.00;76.80
38183;DHT22;23991;52.430;10.586;2022-11-20T02:59:43;0.00;76.80
38183;DHT22;23991;52.430;10.586;2022-11-20T03:02:09;0.00;76.90
38183;DHT22;23991;52.430;10.586;2022-11-20T03:04:35;0.00;76.80
38183;DHT22;23991;52.430;10.586;2022-11-20T03:07:23;0.00;76.90
38183;DHT22;23991;52.430;10.586;2022-11-20T03:09:54;0.00;76.90
38183;DHT22;23991;52.430;10.586;2022-11-20T03:12:20;0.00;76.70
38183;DHT22;23991;52.430;10.586;2022-11-20T03:14:46;0.00;76.60
38183;DHT22;23991;52.430;10.586;2022-11-20T03:17:11;0.00;76.60
38183;DHT22;23991;52.430;10.586;2022-11-20T03:19:37;0.00;76.70
38183;DHT22;23991;52.430;10.586;2022-11-20T03:22:02;0.00;76.70
38183;DHT22;23991;52.430;10.586;2022-11-20T03:24:32;0.00;76.70
38183;DHT22;23991;52.430;10.586;2022-11-20T03:26:58;0.00;76.80
38183;DHT22;23991;52.430;10.586;2022-11-20T03:29:23;0.00;76.80
38183;DHT22;23991;52.430;10.586;2022-11-20T03:31:49;0.00;76.80
38183;DHT22;23991;52.430;10.586;2022-11-20T03:34:14;0.00;76.80
38183;DHT22;23991;52.430;10.586;2022-11-20T03:36:42;0.00;76.90
38183;DHT22;23991;52.430;10.586;2022-11-20T03:39:08;0.00;77.00
38183;DHT22;23991;52.430;10.586;2022-11-20T03:41:39;0.00;77.00
38183;DHT22;23991;52.430;10.586;2022-11-20T03:44:09;0.00;76.70
38183;DHT22;23991;52.430;10.586;2022-11-20T03:46:37;0.00;76.60
38183;DHT22;23991;52.430;10.586;2022-11-20T03:49:03;0.00;76.60
38183;DHT22;23991;52.430;10.586;2022-11-20T03:51:34;0.00;76.70
38183;DHT22;23991;52.430;10.586;2022-11-20T03:54:02;0.00;76.80
38183;DHT22;23991;52.430;10.586;2022-11-20T03:56:32;0.00;76.80
38183;DHT22;23991;52.430;10.586;2022-11-20T03:58:58;0.00;76.80
38183;DHT22;23991;52.430;10.586;2022-11-20T04:01:35;0.00;76.90
38183;DHT22;23991;52.430;10.586;2022-11-20T04:04:04;0.00;76.80
38183;DHT22;23991;52.430;10.586;2022-11-20T04:06:34;0.00;76.80
38183;DHT22;23991;52.430;10.586;2022-11-20T04:08:59;0.00;76.70
38183;DHT22;23991;52.430;10.586;2022-11-20T04:11:27;0.00;76.70
38183;DHT22;23991;52.430;10.586;2022-11-20T04:13:55;0.00;76.80
38183;DHT22;23991;52.430;10.586;2022-11-20T04:16:22;0.00;76.80
38183;DHT22;23991;52.430;10.586;2022-11-20T04:18:56;0.00;76.80
38183;DHT22;23991;52.430;10.586;2022-11-20T04:21:22;0.00;76.80
38183;DHT22;23991;52.430;10.586;2022-11-20T04:23:49;0.00;76.90
38183;DHT22;23991;52.430;10.586;2022-11-20T04:26:15;0.00;76.90
38183;DHT22;23991;52.430;10.586;2022-11-20T04:28:40;0.00;76.90
38183;DHT22;23991;52.430;10.586;2022-11-20T04:31:08;0.00;76.90
38183;DHT22;23991;52.430;10.586;2022-11-20T04:33:34;0.00;76.90
38183;DHT22;23991;52.430;10.586;2022-11-20T04:38:31;0.00;76.90
38183;DHT22;23991;52.430;10.586;2022-11-20T04:41:02;0.00;77.00
38183;DHT22;23991;52.430;10.586;2022-11-20T04:43:29;0.00;77.10
38183;DHT22;23991;52.430;10.586;2022-11-20T04:45:55;0.00;77.20
38183;DHT22;23991;52.430;10.586;2022-11-20T04:48:22;0.00;77.20
38183;DHT22;23991;52.430;10.586;2022-11-20T04:50:50;0.00;77.30
38183;DHT22;23991;52.430;10.586;2022-11-20T04:53:20;0.00;77.20
38183;DHT22;23991;52.430;10.586;2022-11-20T04:55:49;0.00;77.30
38183;DHT22;23991;52.430;10.586;2022-11-20T04:58:15;0.00;77.50
38183;DHT22;23991;52.430;10.586;2022-11-20T05:00:44;0.00;77.40
38183;DHT22;23991;52.430;10.586;2022-11-20T05:03:09;0.00;77.50
38183;DHT22;23991;52.430;10.586;2022-11-20T05:05:40;0.00;77.40
38183;DHT22;23991;52.430;10.586;2022-11-20T05:08:08;0.00;77.30
38183;DHT22;23991;52.430;10.586;2022-11-20T05:10:34;0.00;77.20
38183;DHT22;23991;52.430;10.586;2022-11-20T05:13:04;0.00;77.10
38183;DHT22;23991;52.430;10.586;2022-11-20T05:15:29;0.00;77.00
38183;DHT22;23991;52.430;10.586;2022-11-20T05:17:55;0.00;77.00
38183;DHT22;23991;52.430;10.586;2022-11-20T05:20:24;0.00;77.00
38183;DHT22;23991;52.430;10.586;2022-11-20T05:22:49;0.00;77.00
38183;DHT22;23991;52.430;10.586;2022-11-20T05:25:15;0.00;76.90
38183;DHT22;23991;52.430;10.586;2022-11-20T05:27:41;0.00;76.90
38183;DHT22;23991;52.430;10.586;2022-11-20T05:30:07;0.00;76.80
38183;DHT22;23991;52.430;10.586;2022-11-20T05:32:33;0.00;77.00
38183;DHT22;23991;52.430;10.586;2022-11-20T05:34:59;0.00;76.90
38183;DHT22;23991;52.430;10.586;2022-11-20T05:37:24;0.00;77.00
38183;DHT22;23991;52.430;10.586;2022-11-20T05:39:50;0.00;77.10
38183;DHT22;23991;52.430;10.586;2022-11-20T05:42:15;0.00;77.00
38183;DHT22;23991;52.430;10.586;2022-11-20T05:44:57;0.00;77.00
38183;DHT22;23991;52.430;10.586;2022-11-20T05:47:26;0.00;77.00
38183;DHT22;23991;52.430;10.586;2022-11-20T05:49:52;0.00;77.10
38183;DHT22;23991;52.430;10.586;2022-11-20T05:52:18;0.00;77.00
38183;DHT22;23991;52.430;10.586;2022-11-20T05:54:44;0.00;77.00
38183;DHT22;23991;52.430;10.586;2022-11-20T05:57:09;0.00;77.00
38183;DHT22;23991;52.430;10.586;2022-11-20T05:59:35;0.00;77.10
38183;DHT22;23991;52.430;10.586;2022-11-20T06:02:00;0.00;77.10
38183;DHT22;23991;52.430;10.586;2022-11-20T06:04:32;0.00;77.10
38183;DHT22;23991;52.430;10.586;2022-11-20T06:06:57;0.00;77.10
38183;DHT22;23991;52.430;10.586;2022-11-20T06:09:23;0.00;77.00
38183;DHT22;23991;52.430;10.586;2022-11-20T06:11:49;0.00;76.60
38183;DHT22;23991;52.430;10.586;2022-11-20T06:14:14;0.00;76.70
38183;DHT22;23991;52.430;10.586;2022-11-20T06:16:40;0.00;76.80
38183;DHT22;23991;52.430;10.586;2022-11-20T06:19:06;0.00;76.80
38183;DHT22;23991;52.430;10.586;2022-11-20T06:21:31;0.00;76.70
38183;DHT22;23991;52.430;10.586;2022-11-20T06:23:57;0.00;76.60
38183;DHT22;23991;52.430;10.586;2022-11-20T06:26:24;0.00;76.40
38183;DHT22;23991;52.430;10.586;2022-11-20T06:28:51;0.00;76.30
38183;DHT22;23991;52.430;10.586;2022-11-20T06:31:19;0.00;76.30
38183;DHT22;23991;52.430;10.586;2022-11-20T06:33:46;0.00;76.40
38183;DHT22;23991;52.430;10.586;2022-11-20T06:36:18;0.00;76.40
38183;DHT22;23991;52.430;10.586;2022-11-20T06:38:44;0.00;76.50
38183;DHT22;23991;52.430;10.586;2022-11-20T06:41:20;0.00;76.40
38183;DHT22;23991;52.430;10.586;2022-11-20T06:43:49;0.00;76.50
38183;DHT22;23991;52.430;10.586;2022-11-20T06:46:19;0.00;76.60
38183;DHT22;23991;52.430;10.586;2022-11-20T06:48:46;0.00;76.70
38183;DHT22;23991;52.430;10.586;2022-11-20T06:51:13;0.00;76.50
38183;DHT22;23991;52.430;10.586;2022-11-20T06:54:03;0.00;76.50
38183;DHT22;23991;52.430;10.586;2022-11-20T06:56:36;0.00;76.60
38183;DHT22;23991;52.430;10.586;2022-11-20T06:59:05;0.00;76.70
38183;DHT22;23991;52.430;10.586;2022-11-20T07:01:31;0.00;76.70
38183;DHT22;23991;52.430;10.586;2022-11-20T07:03:56;0.00;76.90
38183;DHT22;23991;52.430;10.586;2022-11-20T07:06:22;0.00;76.90
38183;DHT22;23991;52.430;10.586;2022-11-20T07:08:50;0.00;77.00
38183;DHT22;23991;52.430;10.586;2022-11-20T07:11:16;0.00;77.00
38183;DHT22;23991;52.430;10.586;2022-11-20T07:13:42;0.00;77.00
38183;DHT22;23991;52.430;10.586;2022-11-20T07:16:08;0.00;77.00
38183;DHT22;23991;52.430;10.586;2022-11-20T07:18:34;0.00;77.10
38183;DHT22;23991;52.430;10.586;2022-11-20T07:21:01;0.00;77.10
38183;DHT22;23991;52.430;10.586;2022-11-20T07:23:27;0.00;77.00
38183;DHT22;23991;52.430;10.586;2022-11-20T07:25:52;0.00;76.90
38183;DHT22;23991;52.430;10.586;2022-11-20T07:28:18;0.00;76.90
38183;DHT22;23991;52.430;10.586;2022-11-20T07:30:50;0.00;76.80
38183;DHT22;23991;52.430;10.586;2022-11-20T07:33:16;0.00;76.70
38183;DHT22;23991;52.430;10.586;2022-11-20T07:35:42;0.00;76.80
38183;DHT22;23991;52.430;10.586;2022-11-20T07:38:11;0.00;76.90
38183;DHT22;23991;52.430;10.586;2022-11-20T07:40:36;0.20;76.80
38183;DHT22;23991;52.430;10.586;2022-11-20T07:43:02;0.20;76.70
38183;DHT22;23991;52.430;10.586;2022-11-20T07:45:28;0.20;76.40
38183;DHT22;23991;52.430;10.586;2022-11-20T07:48:02;0.30;76.20
38183;DHT22;23991;52.430;10.586;2022-11-20T07:50:28;0.30;75.90
38183;DHT22;23991;52.430;10.586;2022-11-20T07:53:01;0.40;75.70
38183;DHT22;23991;52.430;10.586;2022-11-20T07:55:26;0.50;75.50
38183;DHT22;23991;52.430;10.586;2022-11-20T07:57:56;0.60;75.20
38183;DHT22;23991;52.430;10.586;2022-11-20T08:00:32;0.70;74.80
38183;DHT22;23991;52.430;10.586;2022-11-20T08:02:57;0.80;74.30
38183;DHT22;23991;52.430;10.586;2022-11-20T08:05:24;0.80;74.00
38183;DHT22;23991;52.430;10.586;2022-11-20T08:07:49;0.90;73.50
38183;DHT22;23991;52.430;10.586;2022-11-20T08:10:18;0.90;73.20
38183;DHT22;23991;52.430;10.586;2022-11-20T08:12:51;1.10;73.00
38183;DHT22;23991;52.430;10.586;2022-11-20T08:15:37;1.10;72.50
38183;DHT22;23991;52.430;10.586;2022-11-20T08:18:10;1.20;71.90
38183;DHT22;23991;52.430;10.586;2022-11-20T08:20:37;1.30;71.50
38183;DHT22;23991;52.430;10.586;2022-11-20T08:23:07;1.40;71.00
38183;DHT22;23991;52.430;10.586;2022-11-20T08:25:34;1.50;70.30
38183;DHT22;23991;52.430;10.586;2022-11-20T08:28:01;1.60;70.10
38183;DHT22;23991;52.430;10.586;2022-11-20T08:30:27;1.70;70.10
38183;DHT22;23991;52.430;10.586;2022-11-20T08:32:59;1.70;69.60
38183;DHT22;23991;52.430;10.586;2022-11-20T08:35:26;1.80;69.20
38183;DHT22;23991;52.430;10.586;2022-11-20T08:37:54;1.90;68.70
38183;DHT22;23991;52.430;10.586;2022-11-20T08:40:22;1.90;68.50
38183;DHT22;23991;52.430;10.586;2022-11-20T08:42:49;2.00;68.20
38183;DHT22;23991;52.430;10.586;2022-11-20T08:45:16;2.20;67.90
38183;DHT22;23991;52.430;10.586;2022-11-20T08:47:45;2.30;67.20
38183;DHT22;23991;52.430;10.586;2022-11-20T08:50:13;2.40;66.70
38183;DHT22;23991;52.430;10.586;2022-11-20T08:52:40;2.50;66.40
38183;DHT22;23991;52.430;10.586;2022-11-20T08:55:06;2.60;66.30
38183;DHT22;23991;52.430;10.586;2022-11-20T08:57:36;2.60;65.80
38183;DHT22;23991;52.430;10.586;2022-11-20T09:00:04;2.70;65.40
38183;DHT22;23991;52.430;10.586;2022-11-20T09:02:30;2.80;64.80
38183;DHT22;23991;52.430;10.586;2022-11-20T09:04:59;2.90;64.10
38183;DHT22;23991;52.430;10.586;2022-11-20T09:07:24;3.00;63.70
38183;DHT22;23991;52.430;10.586;2022-11-20T09:09:50;3.00;63.70
38183;DHT22;23991;52.430;10.586;2022-11-20T09:12:16;3.10;63.20
38183;DHT22;23991;52.430;10.586;2022-11-20T09:14:41;3.30;62.50
38183;DHT22;23991;52.430;10.586;2022-11-20T09:17:07;3.50;61.90
38183;DHT22;23991;52.430;10.586;2022-11-20T09:19:38;3.70;60.90
38183;DHT22;23991;52.430;10.586;2022-11-20T09:22:03;3.90;60.20
38183;DHT22;23991;52.430;10.586;2022-11-20T09:24:31;4.10;59.80
38183;DHT22;23991;52.430;10.586;2022-11-20T09:26:56;4.20;58.90
38183;DHT22;23991;52.430;10.586;2022-11-20T09:29:22;4.20;58.60
38183;DHT22;23991;52.430;10.586;2022-11-20T09:31:48;4.30;58.20
38183;DHT22;23991;52.430;10.586;2022-11-20T09:34:13;4.40;58.10
38183;DHT22;23991;52.430;10.586;2022-11-20T09:36:42;4.40;57.70
38183;DHT22;23991;52.430;10.586;2022-11-20T09:39:07;4.40;57.70
38183;DHT22;23991;52.430;10.586;2022-11-20T09:41:50;4.50;57.30
38183;DHT22;23991;52.430;10.586;2022-11-20T09:44:30;4.50;57.10
38183;DHT22;23991;52.430;10.586;2022-11-20T09:52:01;4.50;57.30
38183;DHT22;23991;52.430;10.586;2022-11-20T09:54:37;4.60;57.70
38183;DHT22;23991;52.430;10.586;2022-11-20T09:57:21;4.70;57.10
38183;DHT22;23991;52.430;10.586;2022-11-20T09:59:54;4.70;56.50
38183;DHT22;23991;52.430;10.586;2022-11-20T10:04:56;4.90;56.70
38183;DHT22;23991;52.430;10.586;2022-11-20T10:07:30;5.00;56.40
38183;DHT22;23991;52.430;10.586;2022-11-20T10:09:57;5.00;56.50
38183;DHT22;23991;52.430;10.586;2022-11-20T10:12:33;5.00;56.30
38183;DHT22;23991;52.430;10.586;2022-11-20T10:26:38;5.40;56.20
38183;DHT22;23991;52.430;10.586;2022-11-20T10:29:14;5.50;55.10
38183;DHT22;23991;52.430;10.586;2022-11-20T10:31:46;5.60;55.00
38183;DHT22;23991;52.430;10.586;2022-11-20T10:36:56;5.70;54.20
38183;DHT22;23991;52.430;10.586;2022-11-20T10:42:00;5.90;53.80
38183;DHT22;23991;52.430;10.586;2022-11-20T10:44:28;6.10;53.50
38183;DHT22;23991;52.430;10.586;2022-11-20T10:47:18;6.10;52.40
38183;DHT22;23991;52.430;10.586;2022-11-20T10:49:51;6.00;53.20
38183;DHT22;23991;52.430;10.586;2022-11-20T10:58:25;6.00;54.10
38183;DHT22;23991;52.430;10.586;2022-11-20T11:01:15;6.10;53.00
38183;DHT22;23991;52.430;10.586;2022-11-20T11:03:44;6.00;53.40
38183;DHT22;23991;52.430;10.586;2022-11-20T11:08:49;6.40;52.70
38183;DHT22;23991;52.430;10.586;2022-11-20T11:11:36;6.50;52.60
38183;DHT22;23991;52.430;10.586;2022-11-20T11:16:35;6.60;52.20
38183;DHT22;23991;52.430;10.586;2022-11-20T11:19:19;6.70;51.80
38183;DHT22;23991;52.430;10.586;2022-11-20T11:21:47;6.80;51.70
38183;DHT22;23991;52.430;10.586;2022-11-20T11:24:27;6.90;51.20
38183;DHT22;23991;52.430;10.586;2022-11-20T11:27:10;7.10;51.00
38183;DHT22;23991;52.430;10.586;2022-11-20T11:29:36;7.30;50.70
38183;DHT22;23991;52.430;10.586;2022-11-20T11:32:18;7.10;51.00
38183;DHT22;23991;52.430;10.586;2022-11-20T11:35:05;7.20;50.80
38183;DHT22;23991;52.430;10.586;2022-11-20T11:37:36;7.30;50.30
38183;DHT22;23991;52.430;10.586;2022-11-20T11:40:04;7.20;50.60
38183;DHT22;23991;52.430;10.586;2022-11-20T11:42:31;7.10;50.90
38183;DHT22;23991;52.430;10.586;2022-11-20T11:45:05;7.10;51.10
38183;DHT22;23991;52.430;10.586;2022-11-20T11:55:35;6.30;55.90
38183;DHT22;23991;52.430;10.586;2022-11-20T11:58:33;6.20;56.50
38183;DHT22;23991;52.430;10.586;2022-11-20T12:01:32;6.30;56.60
38183;DHT22;23991;52.430;10.586;2022-11-20T12:09:47;5.90;58.20
38183;DHT22;23991;52.430;10.586;2022-11-20T12:12:20;5.90;58.50
38183;DHT22;23991;52.430;10.586;2022-11-20T12:14:54;5.80;58.90
38183;DHT22;23991;52.430;10.586;2022-11-20T12:17:23;6.00;58.80
38183;DHT22;23991;52.430;10.586;2022-11-20T12:19:52;6.00;58.50
38183;DHT22;23991;52.430;10.586;2022-11-20T12:28:04;5.90;59.10
38183;DHT22;23991;52.430;10.586;2022-11-20T12:30:45;5.80;59.70
38183;DHT22;23991;52.430;10.586;2022-11-20T12:33:41;5.90;59.70
38183;DHT22;23991;52.430;10.586;2022-11-20T12:45:01;6.20;58.80
38183;DHT22;23991;52.430;10.586;2022-11-20T12:53:05;5.90;60.10
38183;DHT22;23991;52.430;10.586;2022-11-20T12:55:42;5.80;60.50
38183;DHT22;23991;52.430;10.586;2022-11-20T12:58:41;5.90;60.80
38183;DHT22;23991;52.430;10.586;2022-11-20T13:06:51;6.60;58.90
38183;DHT22;23991;52.430;10.586;2022-11-20T13:09:20;7.10;58.20
38183;DHT22;23991;52.430;10.586;2022-11-20T13:20:13;7.90;52.20
38183;DHT22;23991;52.430;10.586;2022-11-20T13:22:47;7.90;52.00
38183;DHT22;23991;52.430;10.586;2022-11-20T13:25:27;7.80;52.10
38183;DHT22;23991;52.430;10.586;2022-11-20T13:27:54;7.70;52.30
38183;DHT22;23991;52.430;10.586;2022-11-20T13:30:25;7.40;53.30
38183;DHT22;23991;52.430;10.586;2022-11-20T13:38:14;6.90;55.10
38183;DHT22;23991;52.430;10.586;2022-11-20T13:40:59;6.90;55.00
38183;DHT22;23991;52.430;10.586;2022-11-20T13:43:51;6.90;55.00
38183;DHT22;23991;52.430;10.586;2022-11-20T13:46:18;6.90;55.30
38183;DHT22;23991;52.430;10.586;2022-11-20T13:48:50;6.90;56.00
38183;DHT22;23991;52.430;10.586;2022-11-20T13:51:47;7.00;55.80
38183;DHT22;23991;52.430;10.586;2022-11-20T13:57:30;7.10;56.50
38183;DHT22;23991;52.430;10.586;2022-11-20T14:00:41;6.90;56.90
38183;DHT22;23991;52.430;10.586;2022-11-20T14:03:24;6.90;57.10
38183;DHT22;23991;52.430;10.586;2022-11-20T14:06:02;6.90;57.40
38183;DHT22;23991;52.430;10.586;2022-11-20T14:08:47;6.80;57.70
38183;DHT22;23991;52.430;10.586;2022-11-20T14:11:27;6.70;57.80
38183;DHT22;23991;52.430;10.586;2022-11-20T14:14:02;6.60;58.10
38183;DHT22;23991;52.430;10.586;2022-11-20T14:16:34;6.80;57.90
38183;DHT22;23991;52.430;10.586;2022-11-20T14:21:45;6.40;59.20
38183;DHT22;23991;52.430;10.586;2022-11-20T14:24:12;6.30;60.00
38183;DHT22;23991;52.430;10.586;2022-11-20T14:26:43;6.40;60.20
38183;DHT22;23991;52.430;10.586;2022-11-20T14:29:19;6.20;60.50
38183;DHT22;23991;52.430;10.586;2022-11-20T14:31:47;6.20;61.10
38183;DHT22;23991;52.430;10.586;2022-11-20T14:34:23;6.10;61.20
38183;DHT22;23991;52.430;10.586;2022-11-20T14:37:00;6.10;61.30
38183;DHT22;23991;52.430;10.586;2022-11-20T14:39:35;6.10;61.70
38183;DHT22;23991;52.430;10.586;2022-11-20T14:42:03;6.00;61.70
38183;DHT22;23991;52.430;10.586;2022-11-20T14:44:48;5.90;62.10
38183;DHT22;23991;52.430;10.586;2022-11-20T14:47:26;5.90;62.20
38183;DHT22;23991;52.430;10.586;2022-11-20T14:49:54;5.90;61.90
38183;DHT22;23991;52.430;10.586;2022-11-20T14:52:25;5.90;61.50
38183;DHT22;23991;52.430;10.586;2022-11-20T14:54:55;5.90;62.00
38183;DHT22;23991;52.430;10.586;2022-11-20T14:57:34;5.80;61.90
38183;DHT22;23991;52.430;10.586;2022-11-20T15:02:42;5.50;62.70
38183;DHT22;23991;52.430;10.586;2022-11-20T15:05:09;5.40;63.10
38183;DHT22;23991;52.430;10.586;2022-11-20T15:07:40;5.40;63.20
38183;DHT22;23991;52.430;10.586;2022-11-20T15:10:25;5.40;63.10
38183;DHT22;23991;52.430;10.586;2022-11-20T15:12:52;5.30;63.20
38183;DHT22;23991;52.430;10.586;2022-11-20T15:15:23;5.10;64.00
38183;DHT22;23991;52.430;10.586;2022-11-20T15:17:52;5.00;64.20
38183;DHT22;23991;52.430;10.586;2022-11-20T15:20:18;4.90;64.40
38183;DHT22;23991;52.430;10.586;2022-11-20T15:22:43;4.90;64.90
38183;DHT22;23991;52.430;10.586;2022-11-20T15:25:14;4.90;65.20
38183;DHT22;23991;52.430;10.586;2022-11-20T15:27:41;4.70;65.40
38183;DHT22;23991;52.430;10.586;2022-11-20T15:30:15;4.60;65.80
38183;DHT22;23991;52.430;10.586;2022-11-20T15:32:44;4.60;66.00
38183;DHT22;23991;52.430;10.586;2022-11-20T15:35:15;4.50;65.90
38183;DHT22;23991;52.430;10.586;2022-11-20T15:37:42;4.50;65.90
38183;DHT22;23991;52.430;10.586;2022-11-20T15:40:09;4.40;66.40
38183;DHT22;23991;52.430;10.586;2022-11-20T15:42:36;4.40;66.70
38183;DHT22;23991;52.430;10.586;2022-11-20T15:45:02;4.30;66.70
38183;DHT22;23991;52.430;10.586;2022-11-20T15:47:37;4.10;67.30
38183;DHT22;23991;52.430;10.586;2022-11-20T15:50:05;4.20;67.30
38183;DHT22;23991;52.430;10.586;2022-11-20T15:52:35;4.00;67.10
38183;DHT22;23991;52.430;10.586;2022-11-20T15:55:01;4.00;67.10
38183;DHT22;23991;52.430;10.586;2022-11-20T15:57:26;3.90;66.80
38183;DHT22;23991;52.430;10.586;2022-11-20T15:59:52;4.00;67.10
38183;DHT22;23991;52.430;10.586;2022-11-20T16:02:18;3.80;67.40
38183;DHT22;23991;52.430;10.586;2022-11-20T16:04:46;3.80;67.70
38183;DHT22;23991;52.430;10.586;2022-11-20T16:07:17;3.70;68.10
38183;DHT22;23991;52.430;10.586;2022-11-20T16:09:42;3.70;68.20
38183;DHT22;23991;52.430;10.586;2022-11-20T16:12:09;3.60;68.50
38183;DHT22;23991;52.430;10.586;2022-11-20T16:14:55;3.60;68.60
38183;DHT22;23991;52.430;10.586;2022-11-20T16:17:39;3.40;69.10
38183;DHT22;23991;52.430;10.586;2022-11-20T16:20:10;3.20;69.70
38183;DHT22;23991;52.430;10.586;2022-11-20T16:22:39;3.20;70.10
38183;DHT22;23991;52.430;10.586;2022-11-20T16:25:05;3.10;70.20
38183;DHT22;23991;52.430;10.586;2022-11-20T16:27:31;3.10;70.20
38183;DHT22;23991;52.430;10.586;2022-11-20T16:29:56;3.00;70.50
38183;DHT22;23991;52.430;10.586;2022-11-20T16:32:22;3.00;70.80
38183;DHT22;23991;52.430;10.586;2022-11-20T16:34:51;3.00;70.60
38183;DHT22;23991;52.430;10.586;2022-11-20T16:37:16;2.90;70.60
38183;DHT22;23991;52.430;10.586;2022-11-20T16:39:46;2.90;70.50
38183;DHT22;23991;52.430;10.586;2022-11-20T16:42:14;2.80;71.20
38183;DHT22;23991;52.430;10.586;2022-11-20T16:44:45;2.70;71.30
38183;DHT22;23991;52.430;10.586;2022-11-20T16:47:10;2.60;71.40
38183;DHT22;23991;52.430;10.586;2022-11-20T16:49:39;2.60;71.40
38183;DHT22;23991;52.430;10.586;2022-11-20T16:52:08;2.50;71.70
38183;DHT22;23991;52.430;10.586;2022-11-20T16:54:36;2.50;71.60
38183;DHT22;23991;52.430;10.586;2022-11-20T16:57:05;2.40;71.40
38183;DHT22;23991;52.430;10.586;2022-11-20T16:59:31;2.40;71.50
38183;DHT22;23991;52.430;10.586;2022-11-20T17:01:56;2.50;71.40
38183;DHT22;23991;52.430;10.586;2022-11-20T17:04:31;2.40;71.80
38183;DHT22;23991;52.430;10.586;2022-11-20T17:06:57;2.40;72.40
38183;DHT22;23991;52.430;10.586;2022-11-20T17:09:22;2.40;72.40
38183;DHT22;23991;52.430;10.586;2022-11-20T17:11:51;2.30;72.40
38183;DHT22;23991;52.430;10.586;2022-11-20T17:14:17;2.30;72.00
38183;DHT22;23991;52.430;10.586;2022-11-20T17:16:42;2.20;71.90
38183;DHT22;23991;52.430;10.586;2022-11-20T17:19:08;2.10;72.10
38183;DHT22;23991;52.430;10.586;2022-11-20T17:21:35;2.10;72.20
38183;DHT22;23991;52.430;10.586;2022-11-20T17:24:02;2.10;72.50
38183;DHT22;23991;52.430;10.586;2022-11-20T17:26:28;2.00;72.90
38183;DHT22;23991;52.430;10.586;2022-11-20T17:28:56;2.00;72.90
38183;DHT22;23991;52.430;10.586;2022-11-20T17:31:28;1.90;72.80